• Join FlightAware (Why Join?)
  • Login
  • US Flag 
11:01PM EST


 

Airport Tracker/Info


-or-


 

Live Flight TrackerFlight Track Log ✈ FFT403 ✈ 25-Apr-2013 ✈ KMDW - KDEN

Flight Track Log - Related Links

Times and Time Zones

All times are in EDT time to prevent confusion due to time zone crossing. See the FFT403 flight status page for this flight to view local times or setup timezone preferences in your user account.

Time Position Orientation Groundspeed Altitude Reporting Facility
EDT Latitude Longitude Course Direction KTS MPH feet Rate Location/Type
07:08AM 41.7667 -87.7667 251° West 134 154 2,000  Level Chicago TRACON
07:09AM 41.7500 -87.8333 251° West 183 211 3,700 2,100 Climbing Chicago TRACON
07:10AM 41.7342 -87.8858 248° West 199 229 5,900 3,060 Climbing Chicago Center
07:11AM 41.7458 -87.9689 281° West 224 258 9,500 2,940 Climbing Chicago Center
07:12AM 41.7594 -88.0542 282° West 235 270 11,900 1,620 Climbing Chicago Center
07:13AM 41.7722 -88.1425 281° West 241 277 12,800 1,740 Climbing Chicago Center
07:14AM 41.7839 -88.2481 278° West 282 325 15,500 2,640 Climbing Chicago Center
07:15AM 41.7875 -88.3544 273° West 290 334 18,200 2,640 Climbing Chicago Center
07:16AM 41.7758 -88.4906 263° West 307 353 20,900 2,340 Climbing Chicago Center
07:17AM 41.7681 -88.6083 265° West 319 367 23,000 1,920 Climbing Chicago Center
07:18AM 41.7658 -88.7306 269° West 326 375 24,900 1,740 Climbing Chicago Center
07:19AM 41.7614 -88.8558 267° West 337 388 26,600 1,560 Climbing Chicago Center
07:20AM 41.7578 -88.9869 268° West 352 405 28,100 1,500 Climbing Chicago Center
07:21AM 41.7522 -89.1211 267° West 363 418 29,700 1,440 Climbing Chicago Center
07:22AM 41.7483 -89.2608 268° West 381 438 31,100 1,260 Climbing Chicago Center
07:23AM 41.7439 -89.4000 268° West 378 435 32,300 1,260 Climbing Chicago Center
07:24AM 41.7378 -89.5531 267° West 381 438 33,800 1,440 Climbing Chicago Center
07:25AM 41.7319 -89.6925 267° West 378 435 35,300 1,320 Climbing Chicago Center
07:26AM 41.7278 -89.8306 268° West 372 428 36,500 1,260 Climbing Chicago Center
07:27AM 41.7217 -89.9656 267° West 368 423 37,900 720 Climbing Chicago Center
07:28AM 41.7167 -90.0992 267° West 363 418 38,000  Climbing Chicago Center
07:29AM 41.7097 -90.2658 267° West 374 430 38,000  Level Chicago Center
07:30AM 41.7019 -90.4094 266° West 385 443 38,000  Level Chicago Center
07:31AM 41.6958 -90.5486 267° West 377 434 38,000  Level Chicago Center
07:32AM 41.6892 -90.6914 266° West 377 434 38,000  Level Chicago Center
07:33AM 41.6819 -90.8292 266° West 375 432 38,000 -60 Level Chicago Center
07:35AM 41.6667 -90.9753 270° West  Level FlightAware Approximate
07:35AM 41.6678 -91.1044 270° West 374 430 37,900  Level Chicago Center
07:37AM 41.6606 -91.2442 266° West 377 434 38,000  Climbing Chicago Center
07:38AM 41.6528 -91.3844 266° West 380 437 38,000  Level Chicago Center
07:39AM 41.6444 -91.5558 266° West 385 443 38,000  Level Chicago Center
07:40AM 41.6367 -91.6983 266° West 385 443 38,000  Level Chicago Center
07:41AM 41.6283 -91.8392 266° West 385 443 38,000 -60 Level Chicago Center
07:42AM 41.6186 -91.9775 265° West 380 437 37,900  Descending Chicago Center
07:43AM 41.6108 -92.1189 266° West 381 438 38,000  Climbing Chicago Center
07:44AM 41.6022 -92.2617 265° West 384 442 38,000  Level Chicago Center
07:45AM 41.5933 -92.4017 265° West 380 437 38,000  Level Chicago Center
07:46AM 41.5847 -92.5414 265° West 380 437 38,000 -60 Level Chicago Center
07:47AM 41.5758 -92.6686 265° West 379 436 37,900  Descending Minneapolis Center
07:48AM 41.5672 -92.8044 265° West 374 430 38,000  Climbing Minneapolis Center
07:49AM 41.5583 -92.9397 265° West 371 427 37,900  Descending Minneapolis Center
07:50AM 41.5481 -93.0772 264° West 374 430 38,000  Climbing Minneapolis Center
07:51AM 41.5394 -93.2103 265° West 368 423 38,000 -60 Level Minneapolis Center
07:52AM 41.5269 -93.3725 264° West 370 426 37,900  Descending Minneapolis Center
07:53AM 41.5172 -93.5069 265° West 369 425 38,000  Climbing Minneapolis Center
07:54AM 41.5083 -93.6408 265° West 367 422 38,000  Level Minneapolis Center
07:55AM 41.5014 -93.7483 265° West 368 423 38,000 -60 Level Minneapolis Center
07:56AM 41.4883 -93.9114 264° West 371 427 37,900 -60 Descending Minneapolis Center
07:57AM 41.4783 -94.0453 264° West 368 423 37,900  Level Minneapolis Center
07:58AM 41.4678 -94.1811 264° West 370 426 38,000  Climbing Minneapolis Center
07:59AM 41.4561 -94.3317 264° West 369 425 38,000  Level Minneapolis Center
08:00AM 41.4453 -94.4661 264° West 368 423 38,000  Level Minneapolis Center
08:01AM 41.4344 -94.6003 264° West 365 420 38,000 -60 Level Minneapolis Center
08:02AM 41.4228 -94.7331 263° West 363 418 37,900 -60 Descending Minneapolis Center
08:03AM 41.4103 -94.8678 263° West 365 420 37,900  Level Minneapolis Center
08:04AM 41.4006 -95.0017 265° West 362 417 38,000  Climbing Minneapolis Center
08:05AM 41.3878 -95.1372 263° West 366 421 38,000  Level Minneapolis Center
08:06AM 41.3783 -95.2453 263° West 368 423 38,000  Level Minneapolis Center
08:07AM 41.3617 -95.4350 263° West 368 423 38,000  Level Minneapolis Center
08:08AM 41.3489 -95.5694 263° West 366 421 38,000  Level Minneapolis Center
08:09AM 41.3375 -95.7008 263° West 365 420 38,000  Level Minneapolis Center
08:10AM 41.3250 -95.8344 263° West 363 418 38,000  Level Minneapolis Center
08:11AM 41.3133 -95.9669 263° West 363 418 38,000  Level Minneapolis Center
08:12AM 41.2989 -96.1014 262° West 364 419 38,000  Level Minneapolis Center
08:13AM 41.2850 -96.2333 262° West 363 418 38,000  Level Minneapolis Center
08:14AM 41.2731 -96.3811 264° West 364 419 38,000  Level Minneapolis Center
08:15AM 41.2600 -96.5156 263° West 365 420 38,000  Level Minneapolis Center
08:16AM 41.2461 -96.6489 262° West 366 421 38,000  Level Minneapolis Center
08:17AM 41.2322 -96.7822 262° West 365 420 38,000  Level Minneapolis Center
08:18AM 41.2183 -96.9156 262° West 364 419 38,000  Level Minneapolis Center
08:19AM 41.2047 -97.0481 262° West 363 418 38,000 -60 Level Minneapolis Center
08:20AM 41.1878 -97.2056 262° West 360 414 37,900  Descending Minneapolis Center
08:21AM 41.1736 -97.3361 262° West 358 412 38,000  Climbing Minneapolis Center
08:22AM 41.1611 -97.4550 262° West 359 413 38,000  Level Minneapolis Center
08:23AM 41.1472 -97.5861 262° West 360 414 38,000  Level Minneapolis Center
08:24AM 41.1328 -97.7192 262° West 363 418 38,000  Level Minneapolis Center
08:25AM 41.1147 -97.8781 261° West 363 418 38,000  Level Minneapolis Center
08:26AM 41.1000 -98.0100 262° West 362 417 38,000  Level Minneapolis Center
08:27AM 41.0847 -98.1414 261° West 361 415 38,000  Level Minneapolis Center
08:29AM 41.0703 -98.2719 262° West 359 413 38,000  Level Minneapolis Center
08:30AM 41.0517 -98.4392 262° West 359 413 38,000  Level Minneapolis Center
08:31AM 41.0378 -98.5686 262° West 357 411 38,000  Level Minneapolis Center
08:32AM 41.0242 -98.6975 262° West 354 407 38,000 -60 Level Minneapolis Center
08:33AM 41.0086 -98.8239 261° West 351 404 37,900 -60 Descending Minneapolis Center
08:34AM 40.9942 -98.9514 262° West 350 403 37,900  Level Minneapolis Center
08:35AM 40.9789 -99.0767 261° West 349 402 38,000  Climbing Minneapolis Center
08:36AM 40.9661 -99.2050 263° West 348 400 38,000  Level Minneapolis Center
08:37AM 40.9517 -99.3286 261° West 342 394 38,000 -60 Level Denver Center
08:38AM 40.9372 -99.4503 261° West 337 388 37,900  Descending Denver Center
08:39AM 40.9228 -99.5725 261° West 336 387 38,000  Climbing Denver Center
08:40AM 40.9061 -99.6950 260° West 337 388 37,900  Descending Denver Center
08:41AM 40.8836 -99.8364 258° West 341 392 38,000  Climbing Denver Center
08:42AM 40.8658 -99.9542 259° West 341 392 38,000  Level Denver Center
08:43AM 40.8478 -100.0739 259° West 346 398 38,000  Level Denver Center
08:44AM 40.8294 -100.1914 258° West 342 394 38,000  Level Denver Center
08:45AM 40.8081 -100.3311 259° West 346 398 38,000  Level Denver Center
08:46AM 40.7861 -100.4706 258° West 346 398 38,000  Level Denver Center
08:47AM 40.7672 -100.5900 258° West 345 397 38,000  Level Denver Center
08:48AM 40.7472 -100.7097 258° West 345 397 38,000  Level Denver Center
08:49AM 40.7286 -100.8311 259° West 345 397 38,000  Level Denver Center
08:50AM 40.7058 -100.9700 258° West 344 396 38,000 -60 Level Denver Center
08:51AM 40.6869 -101.0872 258° West 342 394 37,900 -60 Descending Denver Center
08:52AM 40.6672 -101.2056 258° West 345 397 37,900  Level Denver Center
08:53AM 40.6447 -101.3453 258° West 349 402 38,000  Climbing Denver Center
08:54AM 40.6242 -101.4642 257° West 348 400 38,000  Level Denver Center
08:55AM 40.6050 -101.5844 258° West 349 402 38,000  Level Denver Center
08:56AM 40.5806 -101.7236 257° West 350 403 38,000  Level Denver Center
08:57AM 40.5606 -101.8442 258° West 352 405 38,000  Level Denver Center
08:58AM 40.5394 -101.9625 257° West 349 402 38,000  Level Denver Center
08:59AM 40.5169 -102.1042 258° West 354 407 38,000 -60 Level Denver Center
09:00AM 40.4969 -102.2219 257° West 349 402 37,900 -60 Descending Denver Center
09:01AM 40.4753 -102.3411 257° West 349 402 37,900  Level Denver Center
09:02AM 40.4517 -102.4811 258° West 351 404 38,000  Climbing Denver Center
09:03AM 40.4283 -102.6011 256° West 355 409 38,000  Level Denver Center
09:04AM 40.4072 -102.7267 258° West 353 406 38,000 -600 Level Denver Center
09:05AM 40.3833 -102.8542 256° West 356 410 36,800 -2,220 Descending Denver Center
09:06AM 40.3606 -102.9817 257° West 356 410 33,600 -2,580 Descending Denver Center
09:07AM 40.3369 -103.1119 257° West 361 415 31,100 -2,520 Descending Denver Center
09:08AM 40.3061 -103.2783 256° West 348 400 28,000 -2,700 Descending Denver Center
09:10AM 40.2844 -103.4006 257° West 344 396 25,700 -2,220 Descending Denver Center
09:11AM 40.2625 -103.5197 256° West 337 388 23,500 -2,220 Descending Denver Center
09:12AM 40.2403 -103.6389 256° West 334 384 21,200 -2,220 Descending Denver Center
09:13AM 40.2186 -103.7611 257° West 343 395 19,100 -1,560 Descending Denver Center
09:14AM 40.2003 -103.8717 258° West 304 350 18,100 -1,140 Descending Denver Center
09:15AM 40.1992 -103.9786 269° West 302 348 16,800 -1,500 Descending Denver Center
09:16AM 40.1492 -104.0667 233° Southwest 304 350 15,100 -1,740 Descending Denver Center
09:17AM 40.0942 -104.1447 227° Southwest 299 344 13,300 -1,980 Descending Denver Center
09:18AM 40.0228 -104.2164 218° Southwest 303 349 11,200 -1,680 Descending Denver Center
09:19AM 39.9564 -104.2811 217° Southwest 296 341 10,000 -960 Descending Denver Center
09:20AM 39.9244 -104.3625 243° Southwest 244 281 9,300 -900 Descending Denver Center
09:21AM 39.9000 -104.4333 246° West 210 242 8,300 -1,140 Descending Denver TRACON
09:22AM 39.8833 -104.5000 252° West 189 217 7,100 -960 Descending Denver TRACON
09:23AM 39.8833 -104.5500 270° West 152 175 6,300 -840 Descending Denver TRACON
09:24AM 39.8833 -104.6000 270° West 127 146 5,500 -540 Descending Denver TRACON
09:25AM 39.8769 -104.6453 260° West 117 135 5,300 -240 Descending Denver Center
09:27AM 39.8500 -104.6667 255° West  Level FlightAware Approximate
09:34AM 39.8617 -104.6732 255° West  Level Estimated